createdAt,value
2019-05-03T00:00:58.468Z,21.63
2019-05-03T00:03:24.639Z,18.53
2019-05-03T00:05:52.461Z,20.80
2019-05-03T00:08:19.004Z,19.53
2019-05-03T00:10:45.056Z,19.60
2019-05-03T00:13:12.537Z,17.90
2019-05-03T00:15:55.825Z,21.13
2019-05-03T00:18:22.223Z,17.53
2019-05-03T00:20:48.383Z,17.77
2019-05-03T00:23:14.435Z,21.57
2019-05-03T00:25:41.808Z,29.93
2019-05-03T00:28:08.071Z,21.27
2019-05-03T00:30:34.138Z,19.40
2019-05-03T00:33:00.233Z,23.07
2019-05-03T00:35:31.934Z,21.20
2019-05-03T00:38:01.976Z,19.87
2019-05-03T00:40:28.272Z,25.40
2019-05-03T00:42:54.760Z,19.73
2019-05-03T00:45:22.108Z,23.07
2019-05-03T00:47:48.301Z,21.73
2019-05-03T00:50:14.391Z,19.20
2019-05-03T00:52:42.243Z,20.30
2019-05-03T00:55:16.241Z,23.70
2019-05-03T00:57:36.577Z,22.00
2019-05-03T01:00:06.004Z,21.63
2019-05-03T01:02:32.068Z,20.70
2019-05-03T01:04:58.123Z,18.40
2019-05-03T01:07:24.206Z,19.20
2019-05-03T01:09:51.810Z,18.67
2019-05-03T01:12:18.134Z,19.00
2019-05-03T01:14:46.112Z,19.50
2019-05-03T01:17:12.167Z,17.50
2019-05-03T01:19:38.229Z,18.90
2019-05-03T01:22:04.304Z,20.77
2019-05-03T01:24:32.129Z,16.80
2019-05-03T01:26:58.341Z,19.97
2019-05-03T01:29:24.391Z,17.20
2019-05-03T01:31:52.487Z,17.20
2019-05-03T01:34:18.549Z,17.80
2019-05-03T01:36:44.612Z,14.63
2019-05-03T01:39:12.633Z,17.70
2019-05-03T01:41:38.663Z,15.83
2019-05-03T01:44:04.742Z,15.87
2019-05-03T01:46:31.597Z,14.93
2019-05-03T01:49:14.649Z,16.33
2019-05-03T01:51:54.813Z,13.40
2019-05-03T01:54:22.753Z,13.00
2019-05-03T01:56:56.794Z,13.03
2019-05-03T01:59:16.956Z,13.03
2019-05-03T02:01:44.937Z,11.53
2019-05-03T02:04:12.908Z,12.47
2019-05-03T02:06:38.971Z,11.53
2019-05-03T02:09:07.041Z,14.10
2019-05-03T02:11:33.126Z,10.80
2019-05-03T02:13:59.188Z,11.10
2019-05-03T02:16:25.250Z,12.60
2019-05-03T02:18:51.820Z,10.53
2019-05-03T02:21:18.060Z,9.93
2019-05-03T02:23:44.147Z,15.07
2019-05-03T02:26:11.793Z,12.63
2019-05-03T02:28:37.983Z,11.30
2019-05-03T02:31:04.073Z,10.37
2019-05-03T02:33:32.714Z,8.23
2019-05-03T02:35:58.107Z,10.40
2019-05-03T02:38:24.277Z,9.07
2019-05-03T02:40:53.023Z,9.47
2019-05-03T02:43:20.217Z,8.63
2019-05-03T02:45:57.523Z,8.70
2019-05-03T02:48:45.524Z,8.68
2019-05-03T02:51:10.430Z,8.60
2019-05-03T02:53:36.497Z,7.83
2019-05-03T02:56:15.154Z,8.33
2019-05-03T02:58:30.966Z,8.95
2019-05-03T03:00:59.953Z,7.60
2019-05-03T03:03:27.232Z,6.60
2019-05-03T03:05:56.094Z,9.05
2019-05-03T03:08:25.280Z,7.67
2019-05-03T03:10:51.642Z,7.55
2019-05-03T03:13:20.112Z,7.63
2019-05-03T03:15:46.683Z,7.70
2019-05-03T03:18:15.717Z,7.55
2019-05-03T03:20:45.564Z,7.15
2019-05-03T03:23:15.358Z,8.38
2019-05-03T03:25:46.219Z,7.25
2019-05-03T03:28:16.095Z,7.15
2019-05-03T03:30:51.832Z,7.20
2019-05-03T03:33:18.241Z,7.60
2019-05-03T03:35:48.967Z,7.15
2019-05-03T03:38:15.355Z,7.60
2019-05-03T03:40:41.089Z,6.78
2019-05-03T03:43:08.458Z,7.55
2019-05-03T03:45:36.537Z,7.07
2019-05-03T03:48:05.197Z,7.22
2019-05-03T03:50:32.792Z,7.47
2019-05-03T03:52:59.316Z,10.03
2019-05-03T03:55:27.564Z,8.60
2019-05-03T03:57:55.692Z,7.58
2019-05-03T04:00:22.024Z,8.00
2019-05-03T04:02:49.180Z,8.75
2019-05-03T04:05:15.926Z,9.45
2019-05-03T04:07:42.244Z,8.90
2019-05-03T04:10:08.671Z,7.72
2019-05-03T04:12:35.345Z,8.48
2019-05-03T04:15:07.694Z,8.63
2019-05-03T04:17:56.612Z,11.10
2019-05-03T04:20:25.775Z,10.93
2019-05-03T04:22:52.309Z,11.22
2019-05-03T04:25:18.509Z,13.93
2019-05-03T04:27:45.620Z,13.90
2019-05-03T04:30:12.247Z,11.53
2019-05-03T04:32:38.441Z,11.33
2019-05-03T04:35:05.493Z,12.00
2019-05-03T04:37:31.707Z,13.00
2019-05-03T04:39:57.784Z,11.30
2019-05-03T04:42:25.349Z,15.63
2019-05-03T04:44:51.827Z,14.28
2019-05-03T04:47:17.988Z,11.30
2019-05-03T04:49:46.288Z,14.25
2019-05-03T04:52:12.144Z,17.05
2019-05-03T04:54:40.111Z,14.05
2019-05-03T04:57:06.701Z,14.87
2019-05-03T04:59:35.695Z,15.83
2019-05-03T05:02:01.086Z,13.78
2019-05-03T05:04:27.153Z,17.48
2019-05-03T05:06:55.348Z,23.00
2019-05-03T05:09:21.197Z,23.07
2019-05-03T05:11:47.305Z,21.37
2019-05-03T05:14:15.324Z,25.27
2019-05-03T05:16:42.307Z,22.13
2019-05-03T05:19:22.356Z,22.35
2019-05-03T05:21:55.024Z,28.20
2019-05-03T05:24:21.225Z,37.13
2019-05-03T05:26:58.151Z,30.88
2019-05-03T05:29:26.120Z,37.38
2019-05-03T05:31:52.275Z,43.95
2019-05-03T05:34:18.454Z,44.50
2019-05-03T05:36:45.068Z,43.85
2019-05-03T05:39:15.186Z,47.10
2019-05-03T05:41:41.208Z,44.55
2019-05-03T05:44:07.289Z,50.98
2019-05-03T05:46:41.293Z,52.70
2019-05-03T05:49:09.284Z,53.60
2019-05-03T05:51:35.412Z,51.48
2019-05-03T05:54:01.524Z,50.63
2019-05-03T05:56:35.547Z,51.20
2019-05-03T05:59:06.388Z,53.90
2019-05-03T06:01:35.373Z,52.45
2019-05-03T06:04:01.637Z,47.80
2019-05-03T06:06:29.596Z,54.00
2019-05-03T06:08:57.585Z,53.35
2019-05-03T06:11:28.597Z,48.55
2019-05-03T06:14:08.593Z,50.60
2019-05-03T06:16:39.600Z,49.75
2019-05-03T06:19:10.519Z,54.88
2019-05-03T06:21:38.493Z,51.65
2019-05-03T06:24:18.234Z,53.40
2019-05-03T06:26:49.028Z,52.93
2019-05-03T06:29:15.182Z,54.38
2019-05-03T06:31:55.173Z,54.42
2019-05-03T06:34:21.313Z,47.10
2019-05-03T06:36:51.373Z,49.18
2019-05-03T06:39:17.271Z,53.10
2019-05-03T06:41:44.527Z,52.83
2019-05-03T06:44:10.823Z,57.30
2019-05-03T06:46:45.628Z,69.72
2019-05-03T06:49:15.153Z,61.68
2019-05-03T06:51:45.769Z,55.58
2019-05-03T06:54:09.956Z,55.67
2019-05-03T06:56:36.416Z,62.17
2019-05-03T06:59:05.246Z,56.00
2019-05-03T07:01:45.626Z,57.05
2019-05-03T07:04:15.256Z,58.73
2019-05-03T07:06:49.320Z,55.30
2019-05-03T07:09:20.313Z,53.98
2019-05-03T07:11:46.379Z,54.98
2019-05-03T07:14:12.443Z,56.68
2019-05-03T07:16:38.625Z,49.77
2019-05-03T07:19:04.690Z,57.65
2019-05-03T07:21:30.764Z,51.85
2019-05-03T07:23:56.845Z,52.95
2019-05-03T07:26:22.996Z,47.83
2019-05-03T07:28:50.148Z,45.15
2019-05-03T07:31:16.492Z,48.68
2019-05-03T07:33:44.512Z,46.83
2019-05-03T07:36:10.519Z,49.63
2019-05-03T07:38:36.601Z,51.10
2019-05-03T07:41:05.095Z,42.43
2019-05-03T07:43:30.861Z,46.13
2019-05-03T07:45:56.929Z,40.05
2019-05-03T07:48:25.287Z,53.68
2019-05-03T07:50:51.068Z,49.50
2019-05-03T07:53:17.254Z,45.78
2019-05-03T07:55:45.766Z,48.23
2019-05-03T07:58:15.009Z,49.88
2019-05-03T08:00:41.288Z,51.88
2019-05-03T08:03:07.368Z,49.10
2019-05-03T08:05:34.938Z,45.12
2019-05-03T08:08:01.227Z,41.33
2019-05-03T08:10:27.285Z,48.80
2019-05-03T08:12:54.437Z,44.95
2019-05-03T08:15:20.644Z,49.88
2019-05-03T08:17:46.724Z,49.33
2019-05-03T08:20:14.396Z,48.23
2019-05-03T08:22:40.572Z,59.55
2019-05-03T08:25:06.771Z,48.35
2019-05-03T08:27:32.853Z,52.83
2019-05-03T08:29:58.931Z,48.17
2019-05-03T08:32:35.684Z,50.73
2019-05-03T08:35:15.679Z,50.85
2019-05-03T08:37:46.541Z,58.05
2019-05-03T08:40:15.458Z,136.10
2019-05-03T08:42:41.311Z,44.70
2019-05-03T08:45:08.134Z,44.40
2019-05-03T08:47:34.529Z,48.43
2019-05-03T08:50:00.736Z,39.20
2019-05-03T08:52:26.813Z,26.93
2019-05-03T08:54:54.825Z,28.60
2019-05-03T08:57:20.891Z,23.30
2019-05-03T08:59:47.028Z,24.12
2019-05-03T09:02:17.376Z,28.65
2019-05-03T09:04:43.177Z,34.25
2019-05-03T09:07:09.125Z,40.55
2019-05-03T09:09:55.023Z,15.72
2019-05-03T09:12:21.293Z,13.30
2019-05-03T09:14:48.473Z,10.65
2019-05-03T09:17:15.245Z,15.20
2019-05-03T09:19:41.550Z,17.53
2019-05-03T09:22:07.679Z,15.63
2019-05-03T09:24:35.109Z,20.13
2019-05-03T09:27:01.526Z,20.73
2019-05-03T09:29:39.696Z,25.53
2019-05-03T09:31:55.547Z,24.03
2019-05-03T09:34:21.624Z,30.73
2019-05-03T09:36:47.685Z,29.53
2019-05-03T09:39:14.892Z,25.67
2019-05-03T09:41:41.136Z,35.00
2019-05-03T09:44:07.205Z,38.90
2019-05-03T09:46:35.301Z,33.17
2019-05-03T09:49:12.631Z,36.37
2019-05-03T09:51:29.228Z,39.37
2019-05-03T09:54:14.846Z,38.40
2019-05-03T09:56:58.556Z,35.63
2019-05-03T09:59:26.327Z,38.30
2019-05-03T10:01:52.384Z,31.53
2019-05-03T10:04:18.469Z,34.43
2019-05-03T10:06:45.193Z,34.93
2019-05-03T10:09:12.326Z,37.00
2019-05-03T10:11:38.397Z,35.80
2019-05-03T10:14:04.742Z,31.10
2019-05-03T10:16:34.992Z,36.20
2019-05-03T10:19:00.932Z,29.63
2019-05-03T10:21:28.922Z,27.60
2019-05-03T10:23:55.797Z,28.00
2019-05-03T10:26:24.494Z,29.30
2019-05-03T10:28:50.436Z,29.27
2019-05-03T10:31:16.827Z,26.23
2019-05-03T10:33:47.806Z,25.40
2019-05-03T10:36:15.492Z,24.73
2019-05-03T10:38:41.840Z,33.30
2019-05-03T10:41:08.019Z,26.53
2019-05-03T10:43:35.505Z,24.43
2019-05-03T10:46:01.869Z,27.80
2019-05-03T10:48:27.919Z,27.10
2019-05-03T10:50:56.258Z,31.33
2019-05-03T10:53:23.865Z,31.10
2019-05-03T10:56:08.460Z,30.00
2019-05-03T10:58:35.667Z,26.97
2019-05-03T11:01:01.996Z,29.10
2019-05-03T11:03:28.078Z,25.03
2019-05-03T11:05:54.840Z,22.27
2019-05-03T11:08:21.092Z,20.60
2019-05-03T11:10:47.159Z,22.50
2019-05-03T11:13:15.301Z,21.33
2019-05-03T11:15:41.237Z,20.63
2019-05-03T11:18:07.401Z,21.73
2019-05-03T11:20:34.861Z,25.27
2019-05-03T11:23:02.040Z,22.87
2019-05-03T11:25:28.100Z,19.60
2019-05-03T11:27:55.677Z,21.43
2019-05-03T11:30:21.748Z,21.63
2019-05-03T11:33:01.811Z,21.97
2019-05-03T11:35:29.799Z,20.17
2019-05-03T11:37:57.778Z,17.30
2019-05-03T11:40:25.134Z,19.20
2019-05-03T11:42:55.253Z,19.30
2019-05-03T11:45:21.296Z,19.20
2019-05-03T11:47:47.355Z,17.63
2019-05-03T11:50:14.854Z,14.87
2019-05-03T11:52:41.204Z,11.23
2019-05-03T11:55:11.205Z,10.73
2019-05-03T11:57:35.769Z,8.33
2019-05-03T12:00:05.419Z,6.80
2019-05-03T12:02:33.447Z,7.20
2019-05-03T12:05:01.497Z,7.20
2019-05-03T12:07:39.579Z,8.43
2019-05-03T12:10:02.555Z,7.47
2019-05-03T12:12:30.608Z,8.73
2019-05-03T12:14:56.717Z,11.50
2019-05-03T12:17:28.794Z,9.67
2019-05-03T12:19:54.388Z,9.67
2019-05-03T12:22:21.243Z,11.10
2019-05-03T12:24:48.422Z,10.57
2019-05-03T12:27:15.050Z,10.97
2019-05-03T12:29:41.247Z,8.63
2019-05-03T12:32:07.313Z,9.47
2019-05-03T12:34:35.220Z,9.60
2019-05-03T12:37:01.362Z,9.40
2019-05-03T12:39:30.629Z,10.13
2019-05-03T12:41:55.469Z,10.73
2019-05-03T12:44:21.595Z,8.47
2019-05-03T12:46:47.663Z,11.53
2019-05-03T12:49:15.524Z,11.10
2019-05-03T12:51:41.796Z,11.43
2019-05-03T12:54:07.900Z,10.77
2019-05-03T12:56:35.843Z,11.90
2019-05-03T12:59:10.502Z,14.40
2019-05-03T13:01:56.914Z,11.87
2019-05-03T13:04:27.688Z,13.67
2019-05-03T13:07:05.466Z,14.00
2019-05-03T13:09:31.687Z,13.93
2019-05-03T13:11:59.170Z,11.93
2019-05-03T13:14:25.492Z,11.43
2019-05-03T13:16:51.609Z,11.27
2019-05-03T13:19:17.669Z,12.37
2019-05-03T13:21:45.001Z,12.13
2019-05-03T13:24:22.506Z,12.90
2019-05-03T13:26:39.281Z,19.57
2019-05-03T13:29:05.872Z,13.00
2019-05-03T13:31:32.219Z,11.83
2019-05-03T13:33:58.351Z,15.90
2019-05-03T13:36:25.266Z,14.20
2019-05-03T13:38:51.641Z,13.80
2019-05-03T13:41:17.712Z,15.03
2019-05-03T13:43:45.492Z,13.47
2019-05-03T13:46:11.914Z,14.50
2019-05-03T13:48:45.458Z,14.33
2019-05-03T13:51:06.105Z,13.83
2019-05-03T13:53:32.284Z,15.00
2019-05-03T13:55:58.359Z,14.30
2019-05-03T13:58:26.319Z,14.00
2019-05-03T14:00:54.699Z,13.73
2019-05-03T14:03:20.384Z,15.83
2019-05-03T14:05:46.576Z,15.27
2019-05-03T14:08:12.653Z,14.63
2019-05-03T14:10:39.416Z,15.03
2019-05-03T14:13:05.735Z,13.90
2019-05-03T14:15:31.972Z,15.47
2019-05-03T14:17:58.049Z,15.87
2019-05-03T14:20:31.545Z,14.33
2019-05-03T14:22:57.772Z,16.50
2019-05-03T14:25:24.666Z,18.27
2019-05-03T14:27:51.856Z,17.83
2019-05-03T14:30:18.181Z,19.93
2019-05-03T14:32:45.258Z,17.40
2019-05-03T14:35:11.724Z,17.80
2019-05-03T14:37:38.071Z,20.40
2019-05-03T14:40:06.517Z,18.50
2019-05-03T14:42:32.668Z,17.57
2019-05-03T14:44:58.757Z,19.20
2019-05-03T14:47:25.195Z,19.47
2019-05-03T14:49:51.405Z,17.30
2019-05-03T14:52:17.490Z,18.10
2019-05-03T14:54:45.463Z,18.47
2019-05-03T14:57:28.541Z,18.03
2019-05-03T15:00:16.985Z,23.73
2019-05-03T15:02:48.416Z,21.80
2019-05-03T15:05:11.504Z,20.03
2019-05-03T15:07:37.579Z,20.40
2019-05-03T15:10:05.629Z,18.93
2019-05-03T15:12:31.821Z,21.80
2019-05-03T15:14:58.100Z,18.40
2019-05-03T15:17:24.701Z,21.90
2019-05-03T15:19:50.933Z,21.83
2019-05-03T15:22:17.026Z,21.30
2019-05-03T15:24:44.970Z,19.83
2019-05-03T15:27:11.166Z,21.37
2019-05-03T15:29:37.256Z,22.80
2019-05-03T15:32:05.008Z,21.00
2019-05-03T15:34:31.371Z,25.70
2019-05-03T15:36:57.457Z,25.47
2019-05-03T15:39:23.551Z,23.87
2019-05-03T15:41:49.739Z,27.83
2019-05-03T15:44:20.249Z,20.73
2019-05-03T15:46:54.571Z,21.77
2019-05-03T15:49:20.704Z,17.10
2019-05-03T15:51:46.815Z,41.67
2019-05-03T15:54:12.978Z,12.70
2019-05-03T15:56:39.038Z,9.20
2019-05-03T15:59:05.103Z,7.97
2019-05-03T16:01:31.207Z,7.80
2019-05-03T16:03:57.292Z,6.43
2019-05-03T16:06:24.806Z,7.77
2019-05-03T16:08:51.123Z,7.20
2019-05-03T16:11:17.292Z,9.03
2019-05-03T16:13:44.897Z,6.27
2019-05-03T16:16:11.629Z,7.50
2019-05-03T16:18:37.698Z,5.50
2019-05-03T16:21:04.998Z,5.13
2019-05-03T16:23:31.257Z,5.23
2019-05-03T16:25:57.326Z,6.23
2019-05-03T16:28:25.313Z,5.10
2019-05-03T16:30:53.280Z,5.30
2019-05-03T16:33:27.083Z,4.20
2019-05-03T16:35:47.325Z,10.80
2019-05-03T16:38:15.554Z,4.77
2019-05-03T16:40:42.090Z,4.90
2019-05-03T16:43:08.224Z,3.93
2019-05-03T16:45:35.047Z,5.07
2019-05-03T16:48:01.289Z,4.20
2019-05-03T16:50:27.353Z,4.33
2019-05-03T16:52:54.975Z,5.27
2019-05-03T16:55:21.490Z,6.43
2019-05-03T16:57:47.553Z,6.33
2019-05-03T17:00:17.526Z,7.07
2019-05-03T17:02:41.834Z,5.00
2019-05-03T17:05:16.428Z,4.97
2019-05-03T17:07:44.724Z,4.10
2019-05-03T17:10:18.879Z,4.60
2019-05-03T17:12:45.425Z,5.73
2019-05-03T17:15:14.346Z,4.97
2019-05-03T17:17:40.301Z,4.57
2019-05-03T17:20:06.892Z,3.80
2019-05-03T17:22:34.493Z,2.83
2019-05-03T17:25:00.971Z,3.13
2019-05-03T17:27:27.108Z,3.87
2019-05-03T17:29:55.223Z,2.57
2019-05-03T17:32:21.559Z,2.97
2019-05-03T17:34:47.746Z,2.87
2019-05-03T17:37:13.792Z,2.70
2019-05-03T17:39:41.800Z,3.00
2019-05-03T17:42:09.769Z,3.23
2019-05-03T17:44:37.892Z,2.90
2019-05-03T17:47:04.328Z,3.10
2019-05-03T17:49:30.455Z,3.03
2019-05-03T17:52:01.268Z,3.43
2019-05-03T17:54:29.236Z,3.90
2019-05-03T17:57:04.568Z,4.20
2019-05-03T17:59:35.769Z,4.03
2019-05-03T18:02:12.921Z,3.60
2019-05-03T18:04:40.908Z,4.47
2019-05-03T18:07:12.035Z,3.67
2019-05-03T18:09:40.010Z,5.17
2019-05-03T18:12:06.195Z,4.80
2019-05-03T18:14:34.358Z,4.63
2019-05-03T18:17:00.288Z,4.47
2019-05-03T18:19:26.371Z,4.13
2019-05-03T18:21:52.544Z,4.60
2019-05-03T18:24:18.611Z,5.20
2019-05-03T18:26:44.728Z,6.77
2019-05-03T18:29:10.910Z,7.30
2019-05-03T18:31:37.022Z,6.90
2019-05-03T18:34:05.028Z,8.20
2019-05-03T18:36:32.426Z,6.73
2019-05-03T18:38:59.361Z,6.00
2019-05-03T18:41:25.660Z,4.47
2019-05-03T18:43:59.753Z,3.77
2019-05-03T18:46:33.684Z,3.80
2019-05-03T18:48:59.884Z,4.80
2019-05-03T18:51:26.053Z,4.80
2019-05-03T18:53:52.112Z,4.47
2019-05-03T18:56:18.196Z,4.30
2019-05-03T18:58:44.884Z,3.93
2019-05-03T19:01:11.852Z,4.33
2019-05-03T19:03:38.238Z,4.50
2019-05-03T19:06:09.037Z,3.97
2019-05-03T19:08:44.689Z,4.30
2019-05-03T19:11:25.271Z,4.50
2019-05-03T19:13:55.184Z,3.90
2019-05-03T19:16:25.994Z,3.77
2019-05-03T19:18:52.285Z,4.70
2019-05-03T19:21:18.437Z,5.57
2019-05-03T19:23:44.918Z,4.53
2019-05-03T19:26:11.120Z,3.67
2019-05-03T19:28:37.185Z,4.70
2019-05-03T19:31:05.260Z,4.57
2019-05-03T19:33:31.335Z,4.83
2019-05-03T19:36:00.184Z,4.33
2019-05-03T19:38:25.360Z,4.30
2019-05-03T19:40:51.488Z,4.50
2019-05-03T19:43:17.586Z,3.90
2019-05-03T19:45:44.869Z,4.73
2019-05-03T19:48:11.224Z,4.37
2019-05-03T19:50:37.298Z,3.77
2019-05-03T19:53:05.393Z,4.27
2019-05-03T19:55:31.619Z,4.60
2019-05-03T19:57:57.684Z,4.47
2019-05-03T20:00:25.693Z,5.20
2019-05-03T20:02:54.457Z,4.90
2019-05-03T20:05:22.611Z,6.10
2019-05-03T20:07:57.145Z,5.47
2019-05-03T20:10:24.934Z,4.70
2019-05-03T20:12:51.219Z,5.40
2019-05-03T20:15:17.303Z,5.17
2019-05-03T20:17:54.619Z,5.03
2019-05-03T20:20:11.559Z,5.27
2019-05-03T20:22:37.621Z,4.53
2019-05-03T20:25:05.105Z,4.70
2019-05-03T20:27:31.872Z,5.33
2019-05-03T20:29:57.950Z,4.43
2019-05-03T20:32:25.156Z,4.83
2019-05-03T20:34:51.374Z,5.80
2019-05-03T20:37:17.447Z,5.77
2019-05-03T20:39:43.515Z,5.80
2019-05-03T20:42:09.665Z,6.20
2019-05-03T20:44:44.775Z,6.77
2019-05-03T20:47:18.672Z,7.50
2019-05-03T20:49:46.665Z,7.23
2019-05-03T20:52:12.827Z,6.23
2019-05-03T20:54:38.906Z,7.67
2019-05-03T20:57:05.387Z,7.00
2019-05-03T20:59:42.144Z,7.40
2019-05-03T21:01:59.579Z,11.90
2019-05-03T21:04:25.674Z,8.58
2019-05-03T21:06:51.857Z,7.73
2019-05-03T21:09:18.080Z,8.60
2019-05-03T21:11:44.854Z,7.37
2019-05-03T21:14:11.167Z,10.80
2019-05-03T21:16:51.227Z,7.80
2019-05-03T21:19:22.045Z,8.48
2019-05-03T21:21:50.052Z,6.55
2019-05-03T21:24:20.847Z,8.03
2019-05-03T21:26:46.927Z,8.85
2019-05-03T21:29:15.067Z,8.10
2019-05-03T21:31:41.055Z,7.08
2019-05-03T21:34:07.129Z,7.03
2019-05-03T21:36:34.821Z,7.50
2019-05-03T21:39:01.072Z,8.03
2019-05-03T21:41:27.184Z,6.85
2019-05-03T21:43:54.501Z,14.43
2019-05-03T21:46:25.693Z,10.13
2019-05-03T21:48:59.463Z,21.23
2019-05-03T21:51:25.544Z,17.52
2019-05-03T21:53:51.619Z,14.60
2019-05-03T21:56:17.803Z,8.83
2019-05-03T21:58:44.718Z,10.85
2019-05-03T22:01:13.085Z,7.85
2019-05-03T22:03:39.135Z,9.65
2019-05-03T22:06:05.314Z,10.30
2019-05-03T22:08:31.401Z,9.88
2019-05-03T22:10:57.470Z,7.12
2019-05-03T22:13:24.562Z,7.05
2019-05-03T22:15:56.010Z,7.80
2019-05-03T22:18:26.101Z,8.30
2019-05-03T22:20:54.930Z,8.53
2019-05-03T22:23:40.256Z,7.20
2019-05-03T22:26:06.926Z,6.62
2019-05-03T22:28:35.034Z,7.37
2019-05-03T22:31:00.977Z,6.80
2019-05-03T22:33:27.061Z,7.10
2019-05-03T22:36:07.967Z,8.15
2019-05-03T22:38:25.831Z,7.42
2019-05-03T22:40:51.944Z,7.40
2019-05-03T22:43:18.023Z,8.53
2019-05-03T22:45:45.626Z,8.60
2019-05-03T22:48:11.892Z,11.22
2019-05-03T22:50:37.956Z,9.15
2019-05-03T22:53:05.521Z,8.33
2019-05-03T22:55:32.419Z,8.65
2019-05-03T22:57:58.504Z,8.15
2019-05-03T23:00:25.242Z,8.33
2019-05-03T23:02:51.544Z,9.25
2019-05-03T23:05:17.629Z,11.90
2019-05-03T23:07:44.230Z,8.50
2019-05-03T23:10:11.927Z,6.83
2019-05-03T23:12:38.028Z,7.15
2019-05-03T23:15:07.145Z,7.25
2019-05-03T23:17:34.641Z,7.75
2019-05-03T23:20:04.526Z,7.03
2019-05-03T23:22:31.740Z,10.00
2019-05-03T23:24:57.809Z,7.60
2019-05-03T23:27:24.978Z,7.67
2019-05-03T23:29:51.307Z,7.10
2019-05-03T23:32:17.468Z,8.50
2019-05-03T23:34:43.672Z,6.80
2019-05-03T23:37:09.732Z,6.90
2019-05-03T23:39:35.844Z,10.10
2019-05-03T23:42:04.987Z,6.65
2019-05-03T23:44:31.287Z,6.90
2019-05-03T23:47:02.544Z,6.30
2019-05-03T23:49:28.623Z,6.03
2019-05-03T23:51:56.594Z,6.58
2019-05-03T23:54:24.554Z,5.90
2019-05-03T23:56:50.764Z,7.05
2019-05-03T23:59:16.905Z,7.50
